createdAt,value
2018-11-22T12:17:11.406Z,101047.33
2018-11-22T12:22:13.524Z,101048.25
2018-11-22T12:27:16.711Z,101038.89
2018-11-22T12:32:24.654Z,101038.13
2018-11-22T12:37:35.384Z,101034.98
2018-11-22T12:42:38.205Z,101036.55
2018-11-22T12:47:40.277Z,101039.32
2018-11-22T12:52:42.777Z,101038.28
2018-11-22T12:57:45.176Z,101035.70
2018-11-22T13:02:47.228Z,101032.29
2018-11-22T13:07:50.499Z,101040.00
2018-11-22T13:12:52.586Z,101037.15
2018-11-22T13:17:56.440Z,101041.21
2018-11-22T13:22:58.640Z,101041.21
2018-11-22T13:28:00.736Z,101038.03
2018-11-22T13:33:03.967Z,101042.57
2018-11-22T13:38:07.086Z,101037.37
2018-11-22T13:43:09.998Z,101031.79
2018-11-22T13:48:12.179Z,101033.77
2018-11-22T13:53:14.785Z,101026.94
2018-11-22T13:58:17.429Z,101025.20
2018-11-22T14:03:19.519Z,101028.45
2018-11-22T14:08:21.881Z,101033.40
2018-11-22T14:13:24.873Z,101035.66
2018-11-22T14:18:26.963Z,101033.87
2018-11-22T14:23:29.264Z,101036.05
2018-11-22T14:28:31.356Z,101051.13
2018-11-22T14:33:33.462Z,101046.88
2018-11-22T14:38:36.683Z,101042.06
2018-11-22T14:43:38.743Z,101042.54
2018-11-22T14:48:40.777Z,101041.86
2018-11-22T14:53:43.173Z,101050.30
2018-11-22T14:58:45.257Z,101052.30
2018-11-22T15:03:47.292Z,101047.67
2018-11-22T15:08:49.399Z,101045.50
2018-11-22T15:13:51.496Z,101042.84
2018-11-22T15:18:53.921Z,101045.95
2018-11-22T15:23:55.818Z,101050.04
2018-11-22T15:28:58.506Z,101047.10
2018-11-22T15:34:01.470Z,101049.66
2018-11-22T15:39:05.112Z,101040.86
2018-11-22T15:44:08.428Z,101038.15
2018-11-22T15:49:10.525Z,101044.95
2018-11-22T15:54:13.146Z,101050.63
2018-11-22T15:59:15.217Z,101044.84
2018-11-22T16:04:17.265Z,101048.53
2018-11-22T16:09:19.378Z,101056.48
2018-11-22T16:14:21.450Z,101062.46
2018-11-22T16:19:23.693Z,101068.24
2018-11-22T16:24:25.832Z,101063.61
2018-11-22T16:29:27.956Z,101062.66
2018-11-22T16:34:29.996Z,101069.02
2018-11-22T16:39:32.352Z,101060.78
2018-11-22T16:44:34.452Z,101063.72
2018-11-22T16:49:36.889Z,101070.72
2018-11-22T16:54:39.090Z,101065.13
2018-11-22T16:59:42.066Z,101069.11
2018-11-22T17:04:44.099Z,101066.74
2018-11-22T17:09:46.440Z,101071.67
2018-11-22T17:14:49.037Z,101067.78
2018-11-22T17:19:51.554Z,101072.61
2018-11-22T17:24:53.696Z,101069.59
2018-11-22T17:29:56.022Z,101069.02
2018-11-22T17:34:58.905Z,101068.55
2018-11-22T17:40:00.934Z,101061.74
2018-11-22T17:45:03.380Z,101057.28
2018-11-22T17:50:07.922Z,101058.32
2018-11-22T17:55:14.723Z,101056.16
2018-11-22T18:00:19.907Z,101056.52
2018-11-22T18:05:27.166Z,101052.66
2018-11-22T18:10:25.629Z,101043.45
2018-11-22T18:15:28.908Z,101051.80
2018-11-22T18:20:32.021Z,101052.54
2018-11-22T18:25:34.302Z,101055.19
2018-11-22T18:30:36.424Z,101047.83
2018-11-22T18:35:46.221Z,101047.43
2018-11-22T18:40:48.249Z,101048.56
2018-11-22T18:45:50.353Z,101049.52
2018-11-22T18:50:52.436Z,101056.52
2018-11-22T18:55:54.539Z,101044.95
2018-11-22T19:00:56.633Z,101049.52
2018-11-22T19:05:58.673Z,101049.62
2018-11-22T19:11:00.712Z,101049.70
2018-11-22T19:16:02.767Z,101051.98
2018-11-22T19:21:05.253Z,101053.39
2018-11-22T19:26:07.374Z,101054.16
2018-11-22T19:31:09.435Z,101051.98
2018-11-22T19:36:11.556Z,101052.54
2018-11-22T19:41:13.581Z,101051.41
2018-11-22T19:46:15.657Z,101050.73
2018-11-22T19:51:17.737Z,101048.20
2018-11-22T19:56:19.832Z,101047.83
2018-11-22T20:01:28.952Z,101060.69
2018-11-22T20:06:31.031Z,101063.06
2018-11-22T20:11:33.161Z,101067.41
2018-11-22T20:16:35.201Z,101065.61
2018-11-22T20:21:38.444Z,101070.35
2018-11-22T20:26:40.804Z,101069.95
2018-11-22T20:31:42.832Z,101066.17
2018-11-22T20:36:44.872Z,101066.86
2018-11-22T20:41:47.123Z,101066.56
2018-11-22T20:46:49.285Z,101071.10
2018-11-22T20:51:51.368Z,101065.72
2018-11-22T20:56:53.498Z,101062.66
2018-11-22T21:01:55.497Z,101064.58
2018-11-22T21:06:57.526Z,101069.04
2018-11-22T21:11:59.580Z,101076.77
2018-11-22T21:17:01.824Z,101073.38
2018-11-22T21:22:04.909Z,101077.25
2018-11-22T21:27:07.572Z,101079.53
2018-11-22T21:32:09.675Z,101080.38
2018-11-22T21:37:11.720Z,101086.72
2018-11-22T21:42:13.724Z,101087.20
2018-11-22T21:47:15.956Z,101084.28
2018-11-22T21:52:17.988Z,101080.87
2018-11-22T21:57:20.029Z,101077.17
2018-11-22T22:02:22.125Z,101085.05
2018-11-22T22:07:24.364Z,101085.05
2018-11-22T22:12:26.377Z,101085.02
2018-11-22T22:17:28.397Z,101086.82
2018-11-22T22:22:30.455Z,101088.14
2018-11-22T22:27:32.479Z,101082.58
2018-11-22T22:32:34.545Z,101086.93
2018-11-22T22:37:37.085Z,101087.22
2018-11-22T22:42:39.963Z,101088.44
2018-11-22T22:47:42.904Z,101084.09
2018-11-22T22:52:45.680Z,101083.80
2018-11-22T22:57:47.708Z,101082.36
2018-11-22T23:02:51.554Z,101082.19
2018-11-22T23:07:53.871Z,101081.81
2018-11-22T23:12:56.662Z,101078.13
2018-11-22T23:17:58.862Z,101073.20
2018-11-22T23:23:00.938Z,101075.84
2018-11-22T23:28:03.065Z,101069.52
2018-11-22T23:33:06.623Z,101066.39
2018-11-22T23:38:09.044Z,101061.75
2018-11-22T23:43:11.080Z,101067.80
2018-11-22T23:48:13.764Z,101066.84
2018-11-22T23:53:15.812Z,101067.31
2018-11-22T23:58:17.859Z,101067.23
